Hillsboro, WI (54634)

5:59 PM CDT on July 22, 2017 (GMT -0500)
Richwood Valley, WI | | Change Station
Active Advisory: Flood Warning

Elev 1107 ft 43.68 °N, 90.43 °W | Updated 9 minutes ago

Clear
Clear
82.7 °F
Feels Like 89 °F
N
0.0
Wind Variable Wind from SE

Today
High -- | Low -- °F
--% Chance of Precip.
Yesterday
High -- | Low -- °F
Precip. -- in
Pressure 29.81 in
Visibility 10.0 miles
Clouds Clear
Heat Index 89 °F
Dew Point 74 °F
Humidity 75%
Rainfall 0.00 in
Snow Depth Not available.
5:40 AM 8:34 PM
Waning Crescent, 0% visible
METAR KVOK 222158Z AUTO 00000KT 10SM CLR 29/20 A2981 RMK AO2 SLP092 T02860201
Pressure 29.81 in
Visibility 10.0 miles
Clouds Clear
Heat Index 89 °F
Dew Point 74 °F
Humidity 75%
Rainfall 0.00 in
Snow Depth Not available.
5:40 AM 8:34 PM
Waning Crescent, 0% visible
METAR KVOK 222158Z AUTO 00000KT 10SM CLR 29/20 A2981 RMK AO2 SLP092 T02860201

Get Your Daily Forecast Email!

Thanks for signing up!

Be on the lookout for a verification email in your inbox.

You'll start receiving severe weather alerts in your inbox..

×

10-Day Weather Forecast

Almanac

Astronomy

Jul. 22, 2017 Rise Set
Actual Time
Civil Twilight
Nautical Twilight
Astronomical Twilight
Moon
Length of Visible Light
Length of Day
Tomorrow will be .
, % of the Moon is Illuminated

Today's Extremes

State Highs State Lows

Community

WunderPhotos

Category 6

Welcome to Category 6. This is the collective home for Weather Underground's featured writeups by Dr. Jeff Masters (right), Bob Henson (left), Chris Burt, and other regular contributors.

Nearby

Air Quality

  Air Quality AQ Index Pollutant
Not available.

Snow Depth

Station Depth Elevation

Earthquake Activity

City Distance Mag. Time & Date
Minimum magnitude displayed is 2.5.

Coastal Water Temperatures

Place Temperature

Stations

Nearby Weather Stations

Station Location Temp. Windchill Dew Point Humidity Wind Precip. Elev Updated Type
                   

Watches & Warnings

Flood Warning
Issued: 12:01 PM CDT Jul. 22, 2017 – National Weather Service

The Flood Warning continues for
the Kickapoo river at Readstown.
* Until Wednesday evening... or until the warning is cancelled.
* At 11:00 am Saturday the stage was 16.2 feet.
* Flood stage is 11.0 feet.
* Major flooding is occurring.
* Forecast... the river will continue to fall... dropping below flood
stage Wednesday morning.


Lat... Lon 4346 9072 4341 9077 4341 9079 4347 9078 4348 9073




1201 PM CDT Sat Jul 22 2017

The Flood Warning continues for
the Kickapoo river at Viola.
* Until Tuesday afternoon... or until the warning is cancelled.
* At 11:49 am Saturday the stage was 17.0 feet.
* Flood stage is 14.0 feet.
* Moderate flooding is occurring.
* Forecast... the river will continue to fall... dropping below flood
stage Monday.
* Impact... at 17.0 feet... water is flowing over Highway 56 east of
Viola.


Lat... Lon 4353 9064 4347 9066 4346 9072 4348 9073 4354 9070